Hlavní strana
METAR-TAF:

METAR-TAF

Letiště :

Zonguldak, Turecko

zeměpisná šířka: 41-27N, zeměpisná délka: 031-48E, výška: 136 m

Aktuální stav počasí

Zpráva byla vytvořena před 1 hodinou a 58 minutami, v 13:50 UTC
Severoseverovýchodní vítr 4 kt, proměnlivý mezi severním a východoseverovýchodním
Teplota 19°C
Vlhkost vzduchu 60%
Tlak 1016 hPa
Viditelnost 10 km a více
Polojasno ve výšce 3500 ft
Oblačno až skoro zataženo ve výšce 10000 ft

METAR: LTAS 241350Z 03004KT 360V070 9999 SCT035 BKN100 19/11 Q1016

Čas: 18:48 (15:48 UTC)

Předpověď počasí

Zpráva byla vytvořena před 2 hodinami a 8 minutami, v 13:40 UTC
Předpověď platná od 24 v 15 UTC do 24 v 24 UTC
vítr z různých směrů 2 kt
Viditelnost 10 km a více
Polojasno ve výšce 4000 ft
Oblačno až skoro zataženo ve výšce 10000 ft

TAF: LTAS 241340Z 2415/2424 VRB02KT 9999 SCT040 BKN100

Stav a předpovědi počasí z více než 4 000 letišť (zprávy METAR a TAF).

Červené a žluté tečky na mapě představují dostupné meteorologické stanice.

Když kurzor umístíte na tečku, zobrazí se název stanice.

Pak kliknutím zobrazíte stav a předpověď počasí.

Chcete-li změnit mapu, kliknutím na zelené tlačítko se znaménkem +mapu přiblížíte, kliknutím na zelené tlačítko se znaménkem – mapu oddálíte a kliknutím na zelené šipky přejdete na sousední mapy.


METAR-TAF: